Time;durP1;ratioP1;P1;durP2;ratioP2;P2;SDS_P1;SDS_P2;PMS_P1;PMS_P2;Temp;Humidity;BMP_temperature;BMP_pressure;BME280_temperature;BME280_humidity;BME280_pressure;Samples;Min_cycle;Max_cycle;Signal;HPM_P1;HPM_P2
2024/01/31 07:22:06;;;;;;;12.63;4.23;;;;;;;9.39;74.07;102392.72;4643091;30;20248;-66
2024/01/31 07:24:35;;;;;;;10.47;5.03;;;;;;;9.38;73.91;102400.75;4842782;29;20206;-65
2024/01/31 07:27:04;;;;;;;12.10;6.13;;;;;;;9.39;73.64;102392.72;4900965;29;20316;-65
2024/01/31 07:29:35;;;;;;;15.30;5.87;;;;;;;9.39;73.54;102397.16;4903794;29;20212;-66
2024/01/31 07:32:03;;;;;;;10.77;5.97;;;;;;;9.41;73.61;102392.63;4903466;29;20275;-65
2024/01/31 07:34:32;;;;;;;13.90;6.30;;;;;;;9.38;73.61;102391.00;4898990;29;20313;-67
2024/01/31 07:37:00;;;;;;;10.67;6.27;;;;;;;9.35;73.85;102399.13;4901781;29;20617;-65
2024/01/31 07:39:33;;;;;;;11.97;6.43;;;;;;;9.40;73.83;102397.06;4901329;29;20217;-67
2024/01/31 07:42:01;;;;;;;11.33;5.67;;;;;;;9.41;73.62;102395.28;4903008;29;20237;-65
2024/01/31 07:44:29;;;;;;;11.33;5.07;;;;;;;9.42;73.47;102404.91;4903800;29;20296;-65
2024/01/31 07:47:02;;;;;;;10.67;5.10;;;;;;;9.47;73.18;102394.03;4902395;29;20213;-67
2024/01/31 07:49:31;;;;;;;8.87;5.13;;;;;;;9.47;72.88;102399.34;4902616;29;20212;-67
2024/01/31 07:51:59;;;;;;;10.27;4.47;;;;;;;9.48;72.75;102395.75;4903469;29;20232;-65
2024/01/31 07:54:27;;;;;;;9.33;4.63;;;;;;;9.51;72.75;102392.88;4903683;29;20220;-65
2024/01/31 07:56:57;;;;;;;10.93;5.10;;;;;;;9.54;72.58;102390.91;4902481;29;20567;-65
2024/01/31 07:59:25;;;;;;;15.53;5.37;;;;;;;9.60;72.67;102400.25;4903170;29;20261;-65
2024/01/31 08:01:53;;;;;;;8.13;4.20;;;;;;;9.66;72.49;102399.91;4904366;29;20229;-66
2024/01/31 08:04:21;;;;;;;6.37;4.00;;;;;;;9.67;72.12;102401.63;4900044;29;20212;-64
2024/01/31 08:06:49;;;;;;;10.13;4.23;;;;;;;9.69;71.85;102399.69;4903079;29;22251;-65
2024/01/31 08:09:18;;;;;;;6.07;3.40;;;;;;;9.71;71.67;102392.50;4905044;29;20252;-65
2024/01/31 08:11:50;;;;;;;6.87;3.43;;;;;;;9.74;71.42;102397.63;4902330;29;20220;-63
2024/01/31 08:14:20;;;;;;;5.93;3.10;;;;;;;9.75;71.13;102402.00;4903272;29;20686;-65
2024/01/31 08:16:50;;;;;;;5.10;2.50;;;;;;;9.76;70.51;102406.34;4896871;29;20696;-67
2024/01/31 08:19:19;;;;;;;9.87;2.90;;;;;;;9.79;69.74;102399.03;4902058;29;20219;-66
2024/01/31 08:21:47;;;;;;;13.83;2.90;;;;;;;9.85;69.05;102405.72;4903354;29;20271;-65
2024/01/31 08:24:15;;;;;;;15.77;3.77;;;;;;;9.89;68.64;102407.25;4903078;29;20217;-66
2024/01/31 08:26:43;;;;;;;7.07;2.90;;;;;;;9.92;68.45;102396.47;4901295;29;20217;-67
2024/01/31 08:29:11;;;;;;;8.27;5.37;;;;;;;9.94;67.80;102399.84;4903525;29;20216;-66
2024/01/31 08:31:55;;;;;;;17.40;10.10;;;;;;;10.03;67.82;102398.41;4903476;29;20574;-65
2024/01/31 08:34:23;;;;;;;17.67;8.67;;;;;;;10.05;67.94;102400.03;4902917;29;20692;-66
2024/01/31 08:36:58;;;;;;;14.30;6.10;;;;;;;10.08;67.43;102396.34;4903445;29;20308;-68
2024/01/31 08:39:26;;;;;;;13.33;4.70;;;;;;;10.10;66.87;102397.97;4903710;29;20242;-65
2024/01/31 08:41:54;;;;;;;8.33;3.87;;;;;;;10.17;66.74;102390.44;4903937;29;20240;-63
2024/01/31 08:44:22;;;;;;;5.63;2.93;;;;;;;10.23;66.48;102390.06;4901467;29;20222;-66
2024/01/31 08:46:54;;;;;;;6.17;2.77;;;;;;;10.30;65.92;102395.81;4899994;29;20223;-66
2024/01/31 08:49:42;;;;;;;7.10;2.67;;;;;;;10.33;65.74;102395.63;4902873;29;20214;-67
2024/01/31 08:52:11;;;;;;;5.43;2.50;;;;;;;10.39;65.47;102395.22;4902452;29;20217;-65
2024/01/31 08:54:39;;;;;;;7.63;2.20;;;;;;;10.44;64.79;102393.13;4903048;29;20211;-65
2024/01/31 08:57:08;;;;;;;5.40;2.67;;;;;;;10.51;64.85;102399.75;4902089;29;20206;-65
2024/01/31 08:59:36;;;;;;;7.17;2.30;;;;;;;10.57;64.70;102404.63;4901560;29;20210;-68
2024/01/31 09:02:06;;;;;;;7.00;2.63;;;;;;;10.62;64.33;102405.19;4902694;29;20244;-68
2024/01/31 09:04:35;;;;;;;4.37;2.10;;;;;;;10.68;63.54;102396.81;4904828;29;20294;-63
2024/01/31 09:07:03;;;;;;;11.30;2.00;;;;;;;10.78;63.22;102405.88;4902283;29;20215;-65
2024/01/31 09:09:33;;;;;;;14.93;2.60;;;;;;;10.81;62.66;102405.69;4903734;29;20294;-65
2024/01/31 09:12:01;;;;;;;7.93;2.20;;;;;;;10.86;62.43;102406.22;4902789;29;20218;-64
2024/01/31 09:14:31;;;;;;;8.57;1.67;;;;;;;10.96;61.79;102406.44;4899198;29;20304;-66
2024/01/31 09:16:59;;;;;;;4.17;1.93;;;;;;;11.04;61.64;102400.59;4900346;29;20207;-66
2024/01/31 09:19:29;;;;;;;5.23;1.73;;;;;;;11.14;61.24;102405.19;4901684;29;20215;-65
2024/01/31 09:21:58;;;;;;;5.50;2.27;;;;;;;11.20;60.87;102395.94;4902362;29;20239;-66
2024/01/31 09:24:26;;;;;;;3.77;1.90;;;;;;;11.26;60.27;102395.50;4901531;29;20231;-68
2024/01/31 09:26:55;;;;;;;4.83;1.90;;;;;;;11.42;60.00;102398.84;4902227;29;20223;-66
2024/01/31 09:29:25;;;;;;;7.43;1.87;;;;;;;11.91;58.96;102384.75;4901970;29;20220;-66
2024/01/31 09:31:53;;;;;;;8.83;2.20;;;;;;;12.14;57.86;102380.44;4903440;29;20244;-66
2024/01/31 09:34:21;;;;;;;6.57;1.50;;;;;;;12.33;56.85;102381.59;4901664;29;20221;-67
2024/01/31 09:36:50;;;;;;;4.50;1.80;;;;;;;13.15;55.69;102382.53;4900556;29;20219;-66
2024/01/31 09:39:19;;;;;;;2.87;1.40;;;;;;;14.16;53.31;102370.03;4901827;29;20233;-67
2024/01/31 09:41:48;;;;;;;3.77;1.47;;;;;;;14.28;52.24;102371.66;4901058;29;20237;-66
2024/01/31 09:44:19;;;;;;;3.60;1.60;;;;;;;14.29;51.25;102366.19;4901473;29;20374;-67
2024/01/31 09:46:50;;;;;;;3.70;1.40;;;;;;;15.10;49.93;102371.91;4901295;29;20214;-66
2024/01/31 09:49:19;;;;;;;4.27;1.50;;;;;;;15.50;49.06;102369.28;4900820;29;20231;-66
2024/01/31 09:51:48;;;;;;;2.67;1.10;;;;;;;15.70;46.76;102371.97;4902714;29;20215;-65
2024/01/31 09:54:20;;;;;;;3.20;1.40;;;;;;;15.46;46.36;102367.88;4903385;29;20231;-65
2024/01/31 09:56:48;;;;;;;3.13;1.43;;;;;;;15.41;46.32;102365.59;4902226;29;20209;-65
2024/01/31 09:59:17;;;;;;;2.43;0.83;;;;;;;15.47;45.80;102361.56;4906887;29;20280;-65
2024/01/31 10:01:46;;;;;;;3.33;1.00;;;;;;;15.48;46.07;102364.06;4905639;29;20257;-67
2024/01/31 10:04:15;;;;;;;3.47;1.20;;;;;;;15.54;46.57;102373.44;4905287;29;20224;-66
2024/01/31 10:06:44;;;;;;;5.17;1.20;;;;;;;15.60;45.44;102365.72;4903282;29;20217;-67
2024/01/31 10:09:12;;;;;;;4.17;1.00;;;;;;;15.52;45.25;102365.50;4906592;29;20587;-65
2024/01/31 10:11:47;;;;;;;2.50;0.90;;;;;;;15.18;44.93;102366.75;4905986;29;20308;-67
2024/01/31 10:14:15;;;;;;;4.20;1.20;;;;;;;14.82;45.61;102365.41;4906254;29;20292;-68
2024/01/31 10:16:44;;;;;;;2.87;0.90;;;;;;;14.60;45.80;102363.72;4905741;29;20818;-65
2024/01/31 10:19:12;;;;;;;2.63;1.10;;;;;;;14.30;46.12;102359.06;4904611;29;20548;-67
2024/01/31 10:21:41;;;;;;;1.43;0.70;;;;;;;14.25;46.04;102356.75;4904817;29;20585;-66
2024/01/31 10:24:09;;;;;;;3.07;1.20;;;;;;;14.19;46.53;102353.75;4905333;29;20324;-66
2024/01/31 10:26:38;;;;;;;4.47;1.10;;;;;;;14.24;46.98;102351.56;4903940;29;20217;-67
2024/01/31 10:29:07;;;;;;;3.53;1.07;;;;;;;14.37;46.79;102348.69;4905970;29;20288;-66
2024/01/31 10:31:38;;;;;;;3.47;1.10;;;;;;;14.26;47.46;102352.25;4904993;29;20212;-67
2024/01/31 10:34:09;;;;;;;3.07;1.13;;;;;;;14.12;47.47;102348.06;4904733;29;20686;-65
2024/01/31 10:36:40;;;;;;;3.97;1.03;;;;;;;14.02;46.95;102346.28;4903966;29;20296;-67
2024/01/31 10:39:12;;;;;;;3.83;1.43;;;;;;;14.00;47.24;102348.22;4904998;29;20219;-65
2024/01/31 10:41:42;;;;;;;3.87;0.93;;;;;;;13.86;47.39;102347.53;4906472;29;20294;-66
2024/01/31 10:44:15;;;;;;;3.33;0.80;;;;;;;13.66;47.95;102350.09;4907502;29;20208;-65
2024/01/31 10:46:46;;;;;;;3.37;0.93;;;;;;;13.45;48.45;102355.31;4904334;29;20240;-66
2024/01/31 10:49:16;;;;;;;2.70;1.07;;;;;;;13.31;48.96;102336.88;4903990;29;20268;-67
2024/01/31 10:51:50;;;;;;;5.53;1.40;;;;;;;13.27;49.24;102346.09;4905299;29;20208;-65
2024/01/31 10:54:22;;;;;;;2.20;0.83;;;;;;;13.22;49.54;102337.59;4902568;29;20220;-66
2024/01/31 10:56:51;;;;;;;3.00;1.03;;;;;;;13.14;50.27;102325.75;4905983;29;20241;-66
2024/01/31 10:59:23;;;;;;;9.33;1.90;;;;;;;13.18;50.53;102337.88;4905690;29;20225;-66
2024/01/31 11:01:53;;;;;;;5.03;1.10;;;;;;;13.24;50.51;102341.00;4904583;29;20308;-66
2024/01/31 11:04:22;;;;;;;7.13;1.47;;;;;;;13.33;49.74;102329.63;4904116;29;20219;-66
2024/01/31 11:06:51;;;;;;;5.10;1.33;;;;;;;13.36;49.89;102327.59;4904274;29;20209;-65
2024/01/31 11:09:23;;;;;;;5.93;1.40;;;;;;;13.35;49.78;102338.34;4905531;29;20289;-66
2024/01/31 11:12:02;;;;;;;3.50;1.10;;;;;;;13.41;49.09;102343.19;4903180;29;20210;-66
2024/01/31 11:14:32;;;;;;;4.10;1.27;;;;;;;13.41;49.46;102335.19;4903246;29;20202;-64
2024/01/31 11:17:08;;;;;;;6.27;1.10;;;;;;;13.40;49.32;102336.16;4904712;29;20266;-66
2024/01/31 11:19:41;;;;;;;6.23;1.20;;;;;;;13.31;49.06;102337.75;4904759;29;20239;-67
2024/01/31 11:22:10;;;;;;;4.23;1.43;;;;;;;13.26;48.91;102334.59;4903856;29;20299;-66
2024/01/31 11:24:43;;;;;;;7.53;1.30;;;;;;;13.21;49.25;102325.25;4905526;29;20233;-67
2024/01/31 11:27:12;;;;;;;5.70;1.20;;;;;;;13.13;49.44;102326.72;4906472;29;20208;-65
2024/01/31 11:29:44;;;;;;;2.77;0.87;;;;;;;13.12;50.18;102329.44;4903960;29;20558;-66
2024/01/31 11:32:13;;;;;;;6.67;1.40;;;;;;;13.04;50.27;102334.53;4904307;29;20232;-66
2024/01/31 11:34:42;;;;;;;5.47;1.87;;;;;;;12.96;50.21;102332.47;4902112;29;20227;-65
2024/01/31 11:37:11;;;;;;;6.57;1.33;;;;;;;12.86;50.90;102331.47;4903456;29;20344;-66
2024/01/31 11:39:42;;;;;;;4.83;1.40;;;;;;;12.76;50.80;102326.00;4906212;29;20246;-67
2024/01/31 11:42:12;;;;;;;16.93;2.60;;;;;;;12.68;50.74;102322.22;4904197;29;20214;-67
2024/01/31 11:44:42;;;;;;;12.10;1.40;;;;;;;12.63;51.24;102319.09;4902768;29;20220;-67
2024/01/31 11:47:11;;;;;;;4.33;1.37;;;;;;;12.61;51.24;102323.66;4905052;29;20209;-64
2024/01/31 11:49:39;;;;;;;3.33;1.30;;;;;;;12.63;51.80;102321.75;4903504;29;21052;-66
2024/01/31 11:52:08;;;;;;;8.60;1.60;;;;;;;12.56;51.22;102323.19;4903972;29;20206;-66
2024/01/31 11:54:36;;;;;;;9.87;1.40;;;;;;;12.50;51.64;102321.81;4903479;29;20226;-67
2024/01/31 11:57:05;;;;;;;3.70;1.40;;;;;;;12.44;52.00;102309.81;4905670;29;20206;-65
2024/01/31 11:59:34;;;;;;;3.90;1.37;;;;;;;12.43;52.24;102308.13;4905084;29;20213;-67
2024/01/31 12:02:04;;;;;;;23.23;12.87;;;;;;;12.37;52.59;102308.59;4904550;29;20332;-67
2024/01/31 12:04:32;;;;;;;6.30;2.87;;;;;;;12.34;52.79;102310.63;4904408;29;20964;-66
2024/01/31 12:07:04;;;;;;;4.57;2.30;;;;;;;12.31;52.85;102297.56;4901469;29;20214;-66
2024/01/31 12:09:34;;;;;;;6.43;1.83;;;;;;;12.29;53.28;102297.69;4904044;29;20221;-66
2024/01/31 12:12:02;;;;;;;5.87;1.83;;;;;;;12.27;53.10;102296.09;4903974;29;20215;-66
2024/01/31 12:14:31;;;;;;;4.30;1.57;;;;;;;12.26;52.96;102303.22;4905046;29;20205;-65
2024/01/31 12:16:59;;;;;;;6.90;1.37;;;;;;;12.27;53.17;102307.59;4903984;29;20292;-66
2024/01/31 12:19:29;;;;;;;5.43;1.47;;;;;;;12.29;52.44;102299.50;4902222;29;20217;-66
2024/01/31 12:21:58;;;;;;;8.90;1.50;;;;;;;12.31;52.60;102298.41;4901842;29;20218;-65
2024/01/31 12:24:26;;;;;;;7.30;1.30;;;;;;;12.33;53.35;102291.16;4902321;29;20320;-66
2024/01/31 12:26:55;;;;;;;4.27;1.20;;;;;;;12.32;53.62;102278.81;4902311;29;20211;-66
2024/01/31 12:29:24;;;;;;;6.47;1.43;;;;;;;12.40;53.24;102275.59;4902668;29;20212;-65
2024/01/31 12:31:52;;;;;;;5.97;1.57;;;;;;;12.38;52.80;102269.53;4902586;29;20747;-67
2024/01/31 12:34:21;;;;;;;9.87;1.70;;;;;;;12.36;52.41;102266.13;4904244;29;21106;-68
2024/01/31 12:36:54;;;;;;;5.23;1.63;;;;;;;12.41;52.28;102259.50;4901035;29;20335;-66
2024/01/31 12:39:23;;;;;;;5.63;1.70;;;;;;;12.48;52.19;102248.41;4904469;29;20219;-66
2024/01/31 12:41:52;;;;;;;7.63;1.57;;;;;;;12.46;52.51;102242.34;4901584;29;20324;-65
2024/01/31 12:44:21;;;;;;;5.20;1.67;;;;;;;12.48;52.76;102245.75;4905125;29;20287;-65
2024/01/31 12:46:49;;;;;;;3.67;1.37;;;;;;;12.48;52.68;102240.41;4902647;29;20731;-65
2024/01/31 12:49:18;;;;;;;3.73;1.60;;;;;;;12.61;52.26;102235.84;4903460;29;20217;-65
2024/01/31 12:51:46;;;;;;;4.47;1.70;;;;;;;12.76;52.05;102226.66;4903397;29;20230;-65
2024/01/31 12:54:16;;;;;;;5.57;1.50;;;;;;;12.79;51.18;102218.44;4901023;29;20211;-66
2024/01/31 12:56:44;;;;;;;6.43;1.53;;;;;;;12.77;50.87;102215.03;4901624;29;20237;-68
2024/01/31 12:59:12;;;;;;;5.07;1.33;;;;;;;12.71;50.58;102205.72;4901791;29;20211;-66
2024/01/31 13:01:41;;;;;;;4.80;1.57;;;;;;;12.92;51.16;102191.72;4905082;29;20240;-66
2024/01/31 13:04:09;;;;;;;5.40;1.70;;;;;;;13.01;50.47;102188.31;4903815;29;20874;-64
2024/01/31 13:06:38;;;;;;;3.70;1.50;;;;;;;13.10;50.27;102188.44;4899810;29;20316;-66
2024/01/31 13:09:07;;;;;;;9.47;1.87;;;;;;;13.17;50.20;102187.00;4905484;29;20237;-66
2024/01/31 13:11:37;;;;;;;10.57;1.70;;;;;;;13.19;50.68;102185.03;4904597;29;20219;-65
2024/01/31 13:14:05;;;;;;;4.23;1.47;;;;;;;13.18;50.93;102178.03;4902527;29;20213;-69
2024/01/31 13:16:33;;;;;;;5.70;1.60;;;;;;;13.12;50.40;102173.16;4902848;29;20230;-65
2024/01/31 13:19:13;;;;;;;5.50;1.43;;;;;;;13.09;50.71;102172.56;4902660;29;20223;-67
2024/01/31 13:21:46;;;;;;;6.07;1.67;;;;;;;13.03;50.47;102179.22;4900004;29;20263;-65
2024/01/31 13:24:14;;;;;;;4.90;1.30;;;;;;;12.92;50.05;102170.41;4900245;29;20237;-66
2024/01/31 13:26:44;;;;;;;6.77;1.70;;;;;;;12.89;51.18;102165.31;4902378;29;20738;-66
2024/01/31 13:29:13;;;;;;;5.67;1.77;;;;;;;12.84;50.85;102163.00;4900042;29;20675;-65
2024/01/31 13:31:41;;;;;;;10.27;2.33;;;;;;;12.82;50.84;102155.16;4904478;29;20218;-65
2024/01/31 13:34:10;;;;;;;5.97;2.17;;;;;;;12.83;50.70;102150.69;4905385;29;20223;-68
2024/01/31 13:36:38;;;;;;;6.77;2.07;;;;;;;12.84;50.96;102159.53;4903574;29;20211;-66
2024/01/31 13:39:06;;;;;;;8.30;1.67;;;;;;;12.85;50.66;102154.03;4905239;29;20897;-64
2024/01/31 13:41:37;;;;;;;3.57;1.50;;;;;;;12.86;50.81;102153.09;4907320;29;20746;-65
2024/01/31 13:44:07;;;;;;;5.50;1.63;;;;;;;12.82;50.73;102147.16;4905442;29;20236;-65
2024/01/31 13:46:35;;;;;;;5.23;1.63;;;;;;;12.78;50.34;102137.72;4905807;29;20213;-67
2024/01/31 13:49:05;;;;;;;5.83;1.80;;;;;;;12.79;50.58;102118.13;4903043;29;20704;-66
2024/01/31 13:51:34;;;;;;;4.93;1.53;;;;;;;12.78;51.06;102108.44;4905501;29;20304;-65
2024/01/31 13:54:02;;;;;;;7.90;1.93;;;;;;;12.83;50.64;102116.06;4904296;29;20217;-67
2024/01/31 13:56:30;;;;;;;5.20;1.73;;;;;;;12.81;50.80;102118.84;4903401;29;20212;-67
2024/01/31 13:58:58;;;;;;;11.90;1.93;;;;;;;12.69;50.44;102113.66;4904444;29;20223;-66
2024/01/31 14:01:28;;;;;;;4.10;1.53;;;;;;;12.70;50.69;102123.31;4905071;29;20210;-66
2024/01/31 14:03:58;;;;;;;3.40;1.53;;;;;;;12.61;50.71;102129.38;4901656;29;20323;-66
2024/01/31 14:06:27;;;;;;;12.50;1.33;;;;;;;12.52;50.91;102124.78;4904451;29;20333;-65
2024/01/31 14:08:55;;;;;;;4.83;1.40;;;;;;;12.41;50.82;102133.59;4904190;29;20209;-66
2024/01/31 14:11:27;;;;;;;5.73;1.60;;;;;;;12.38;51.54;102128.53;4908797;29;20276;-65
2024/01/31 14:13:56;;;;;;;4.27;1.50;;;;;;;12.42;51.77;102125.50;4903571;29;20220;-66
2024/01/31 14:16:24;;;;;;;4.70;1.57;;;;;;;12.40;51.09;102132.75;4906710;29;20209;-67
2024/01/31 14:18:55;;;;;;;4.23;1.30;;;;;;;12.31;51.63;102137.97;4905229;29;20220;-65
2024/01/31 14:21:23;;;;;;;8.70;1.90;;;;;;;12.27;52.03;102144.47;4904003;29;20276;-66
2024/01/31 14:23:52;;;;;;;7.33;1.50;;;;;;;12.22;52.19;102128.88;4905837;29;20221;-67
2024/01/31 14:26:35;;;;;;;3.33;1.40;;;;;;;12.16;52.13;102134.66;4903706;29;20296;-65
2024/01/31 14:29:03;;;;;;;3.37;1.47;;;;;;;12.12;52.42;102122.56;4905609;29;20237;-67
2024/01/31 14:31:32;;;;;;;7.53;2.53;;;;;;;12.15;52.51;102124.97;4904751;29;20216;-67
2024/01/31 14:34:01;;;;;;;4.67;1.77;;;;;;;12.19;52.44;102131.78;4887108;29;20217;-64
2024/01/31 14:36:30;;;;;;;8.60;1.90;;;;;;;12.20;52.62;102125.50;4905441;29;20209;-67
2024/01/31 14:38:58;;;;;;;4.80;2.27;;;;;;;12.17;52.92;102125.72;4907104;29;20218;-66
2024/01/31 14:41:27;;;;;;;9.33;2.17;;;;;;;12.18;53.15;102116.78;4905653;29;20215;-65
2024/01/31 14:43:55;;;;;;;5.50;2.13;;;;;;;12.19;53.30;102125.59;4904264;29;20370;-66
2024/01/31 14:46:25;;;;;;;7.53;2.63;;;;;;;12.19;53.70;102122.94;4903390;29;20217;-67
2024/01/31 14:48:53;;;;;;;6.00;2.40;;;;;;;12.07;53.20;102119.41;4903575;29;21270;-67
2024/01/31 14:51:23;;;;;;;4.90;2.10;;;;;;;12.00;53.50;102126.16;4904871;29;20213;-66
2024/01/31 14:53:52;;;;;;;8.47;3.30;;;;;;;11.98;53.68;102130.75;4903125;29;20209;-68
2024/01/31 14:56:20;;;;;;;8.90;2.70;;;;;;;11.94;53.40;102129.31;4904295;29;20864;-67
2024/01/31 14:58:49;;;;;;;6.57;2.33;;;;;;;11.85;53.76;102119.38;4903992;29;20217;-65
2024/01/31 15:01:18;;;;;;;9.30;2.50;;;;;;;11.81;53.96;102113.41;4901477;29;20217;-64
2024/01/31 15:03:47;;;;;;;9.90;2.57;;;;;;;11.78;54.30;102102.19;4903641;29;20209;-67
2024/01/31 15:06:16;;;;;;;9.70;2.57;;;;;;;11.86;54.86;102105.13;4903314;29;20241;-65
2024/01/31 15:08:46;;;;;;;8.27;2.77;;;;;;;11.88;54.58;102100.50;4901624;29;21109;-66
2024/01/31 15:11:15;;;;;;;9.83;3.40;;;;;;;11.79;54.66;102114.50;4904033;29;20305;-71
2024/01/31 15:13:43;;;;;;;9.13;2.80;;;;;;;11.73;55.07;102115.78;4905071;29;20212;-66
2024/01/31 15:16:14;;;;;;;13.90;4.40;;;;;;;11.72;55.20;102102.59;4904274;29;20228;-69
2024/01/31 15:18:43;;;;;;;10.83;3.50;;;;;;;11.70;55.41;102116.00;4905467;29;20217;-67
2024/01/31 15:21:18;;;;;;;10.60;2.30;;;;;;;11.66;55.51;102123.38;4904227;29;20208;-66
2024/01/31 15:23:48;;;;;;;7.60;3.20;;;;;;;11.63;55.66;102128.06;4903916;29;20279;-68
2024/01/31 15:26:16;;;;;;;6.83;2.73;;;;;;;11.61;55.88;102137.94;4903290;29;20771;-66
2024/01/31 15:28:45;;;;;;;7.50;3.07;;;;;;;11.58;56.02;102133.72;4905784;29;20220;-66
2024/01/31 15:31:13;;;;;;;5.43;2.73;;;;;;;11.61;56.30;102133.47;4902579;29;20242;-66
2024/01/31 15:33:42;;;;;;;8.13;3.23;;;;;;;11.61;56.49;102136.13;4904174;29;20247;-66
2024/01/31 15:36:11;;;;;;;9.37;2.87;;;;;;;11.66;56.99;102139.31;4904325;29;20236;-67
2024/01/31 15:38:39;;;;;;;5.80;2.83;;;;;;;11.59;57.13;102130.13;4903198;29;20205;-66
2024/01/31 15:41:09;;;;;;;9.33;3.60;;;;;;;11.56;57.36;102129.50;4904516;29;20724;-66
2024/01/31 15:43:42;;;;;;;8.10;4.00;;;;;;;11.56;57.81;102129.50;4903066;29;20296;-66
2024/01/31 15:46:10;;;;;;;9.73;5.00;;;;;;;11.55;57.80;102128.63;4903003;29;20241;-66
2024/01/31 15:48:39;;;;;;;14.57;5.23;;;;;;;11.55;57.95;102128.63;4885105;29;20233;-66
2024/01/31 15:51:07;;;;;;;11.97;4.70;;;;;;;11.49;58.48;102121.13;4903892;29;20219;-65
2024/01/31 15:53:36;;;;;;;13.50;4.83;;;;;;;11.41;58.96;102120.84;4904689;29;20221;-67
2024/01/31 15:56:04;;;;;;;11.20;4.73;;;;;;;11.48;59.04;102110.63;4903949;29;20242;-66
2024/01/31 15:58:34;;;;;;;9.33;3.50;;;;;;;11.49;59.25;102112.31;4905094;29;21191;-66
2024/01/31 16:01:03;;;;;;;8.80;3.70;;;;;;;11.41;59.74;102104.06;4904923;29;20296;-64
2024/01/31 16:03:31;;;;;;;10.07;3.57;;;;;;;11.37;60.04;102108.75;4903063;29;20264;-66
2024/01/31 16:05:59;;;;;;;10.33;3.57;;;;;;;11.28;60.53;102112.94;4902232;29;20961;-66
2024/01/31 16:08:28;;;;;;;11.27;3.70;;;;;;;11.26;60.79;102100.72;4903886;29;20232;-65
2024/01/31 16:10:56;;;;;;;11.00;4.10;;;;;;;11.25;61.38;102101.72;4904211;29;20259;-66
2024/01/31 16:13:24;;;;;;;9.10;3.67;;;;;;;11.22;61.77;102094.81;4907316;29;20234;-64
2024/01/31 16:15:53;;;;;;;10.33;4.60;;;;;;;11.13;62.49;102084.84;4904434;29;20212;-65
2024/01/31 16:18:22;;;;;;;10.33;4.63;;;;;;;11.07;62.69;102093.28;4903450;29;20224;-64
2024/01/31 16:20:50;;;;;;;11.43;4.60;;;;;;;10.99;63.14;102082.38;4902011;29;20210;-66
2024/01/31 16:23:22;;;;;;;9.83;4.37;;;;;;;10.97;63.56;102086.09;4903264;29;20224;-66
2024/01/31 16:25:51;;;;;;;10.13;4.47;;;;;;;10.92;63.96;102068.69;4903056;29;20241;-65
2024/01/31 16:28:19;;;;;;;8.80;3.70;;;;;;;10.86;64.56;102071.78;4904938;29;20974;-66
2024/01/31 16:30:51;;;;;;;10.40;3.87;;;;;;;10.79;65.22;102075.00;4901683;29;20229;-65
2024/01/31 16:33:21;;;;;;;9.03;3.40;;;;;;;10.74;65.60;102080.63;4902745;29;20705;-67
2024/01/31 16:35:49;;;;;;;7.43;3.77;;;;;;;10.75;65.91;102082.31;4903316;29;20331;-67
2024/01/31 16:38:18;;;;;;;7.50;4.00;;;;;;;10.78;65.86;102068.84;4904293;29;20208;-67
2024/01/31 16:40:46;;;;;;;8.03;5.07;;;;;;;10.76;66.15;102067.25;4903384;29;20223;-67
2024/01/31 16:43:14;;;;;;;10.03;4.67;;;;;;;10.67;66.93;102071.41;4903931;29;20204;-66
2024/01/31 16:45:43;;;;;;;11.50;5.13;;;;;;;10.67;66.95;102065.25;4903823;29;20232;-66
2024/01/31 16:48:12;;;;;;;10.00;4.83;;;;;;;10.60;67.12;102067.50;4903532;29;20216;-66
2024/01/31 16:50:43;;;;;;;13.30;5.00;;;;;;;10.60;67.38;102067.50;4901983;29;20628;-66
2024/01/31 16:53:12;;;;;;;9.87;5.27;;;;;;;10.55;67.55;102061.69;4904817;29;20215;-65
2024/01/31 16:55:40;;;;;;;12.00;5.63;;;;;;;10.54;67.80;102067.97;4902007;29;20991;-67
2024/01/31 16:58:08;;;;;;;13.00;5.13;;;;;;;10.50;68.20;102066.47;4904912;29;20210;-66
2024/01/31 17:00:38;;;;;;;9.10;5.57;;;;;;;10.43;68.37;102066.06;4904982;29;20225;-65
2024/01/31 17:03:07;;;;;;;7.63;4.87;;;;;;;10.38;68.57;102054.09;4902349;29;21098;-68
2024/01/31 17:05:36;;;;;;;10.10;5.57;;;;;;;10.38;68.97;102064.69;4903461;29;20279;-66
2024/01/31 17:08:07;;;;;;;15.10;5.63;;;;;;;10.33;69.00;102062.34;4902311;29;20251;-66
2024/01/31 17:10:37;;;;;;;10.33;5.27;;;;;;;10.30;69.41;102051.09;4903096;29;20220;-69
2024/01/31 17:13:05;;;;;;;13.73;6.07;;;;;;;10.32;69.23;102051.84;4902376;29;20229;-67
2024/01/31 17:15:34;;;;;;;14.83;5.50;;;;;;;10.25;69.81;102046.13;4901969;29;20215;-68
2024/01/31 17:18:03;;;;;;;12.90;5.80;;;;;;;10.21;69.90;102046.44;4902172;29;20673;-69
2024/01/31 17:20:32;;;;;;;11.97;5.90;;;;;;;10.15;70.26;102051.19;4903179;29;20323;-66
2024/01/31 17:23:01;;;;;;;11.30;5.77;;;;;;;10.19;70.21;102043.94;4904219;29;20225;-69
2024/01/31 17:25:31;;;;;;;12.37;6.50;;;;;;;10.24;69.97;102048.88;4902076;29;20223;-66
2024/01/31 17:27:59;;;;;;;12.90;7.23;;;;;;;10.25;69.76;102040.84;4900338;29;20306;-67
2024/01/31 17:30:28;;;;;;;17.33;6.93;;;;;;;10.24;70.11;102040.94;4888058;29;20293;-64
2024/01/31 17:32:57;;;;;;;11.90;6.60;;;;;;;10.17;70.32;102038.72;4902662;29;20310;-66
2024/01/31 17:35:25;;;;;;;11.63;7.03;;;;;;;10.16;70.29;102042.28;4902340;29;20262;-66
2024/01/31 17:38:50;;;;;;;15.70;7.63;;;;;;;10.17;70.33;102041.38;4901978;29;20214;-66
2024/01/31 17:41:20;;;;;;;13.80;6.80;;;;;;;10.16;70.62;102044.94;4903414;29;20309;-65
2024/01/31 17:43:48;;;;;;;14.00;7.03;;;;;;;10.20;70.50;102044.78;4901843;29;20219;-66
2024/01/31 17:46:21;;;;;;;13.70;6.87;;;;;;;10.22;70.60;102048.13;4902414;29;20239;-66
2024/01/31 17:48:50;;;;;;;15.80;6.77;;;;;;;10.22;70.72;102038.38;4903391;29;20207;-66
2024/01/31 17:51:18;;;;;;;12.23;6.63;;;;;;;10.21;70.86;102046.44;4902028;29;20222;-66
2024/01/31 17:53:47;;;;;;;12.50;7.30;;;;;;;10.26;70.71;102039.88;4901562;29;20210;-65
2024/01/31 17:56:18;;;;;;;12.77;6.93;;;;;;;10.23;70.77;102041.88;4901074;29;20251;-66
2024/01/31 17:58:48;;;;;;;13.70;7.07;;;;;;;10.17;70.93;102041.38;4900062;29;20216;-66
2024/01/31 18:01:18;;;;;;;14.93;7.67;;;;;;;10.15;70.95;102040.59;4902787;29;20257;-67
2024/01/31 18:03:47;;;;;;;18.10;8.70;;;;;;;10.14;71.14;102041.53;4901217;29;20217;-67
2024/01/31 18:06:15;;;;;;;13.83;7.60;;;;;;;10.17;71.22;102040.50;4899797;29;20237;-66
2024/01/31 18:08:44;;;;;;;13.17;7.57;;;;;;;10.19;71.09;102028.03;4903081;29;20298;-66
2024/01/31 18:11:13;;;;;;;13.83;8.40;;;;;;;10.22;71.12;102021.63;4902131;29;20229;-64
2024/01/31 18:13:48;;;;;;;13.20;7.57;;;;;;;10.19;70.90;102014.75;4902775;29;20218;-66
2024/01/31 18:16:18;;;;;;;14.60;8.10;;;;;;;10.10;71.00;102018.03;4901625;29;20220;-65
2024/01/31 18:18:47;;;;;;;13.67;8.13;;;;;;;10.01;71.27;102014.22;4905625;29;20230;-65
2024/01/31 18:21:16;;;;;;;11.10;6.70;;;;;;;9.98;70.74;102014.41;4903666;29;20223;-64
2024/01/31 18:23:45;;;;;;;15.53;6.43;;;;;;;9.95;70.53;102004.03;4905743;29;20264;-65
2024/01/31 18:26:19;;;;;;;16.00;7.80;;;;;;;9.90;69.89;102000.00;4905724;29;20261;-66
2024/01/31 18:28:47;;;;;;;12.37;7.30;;;;;;;9.84;69.75;101997.78;4907414;29;20300;-66
2024/01/31 18:31:19;;;;;;;12.57;6.63;;;;;;;9.78;69.10;101991.09;4905402;29;20213;-65
2024/01/31 18:33:48;;;;;;;17.47;7.03;;;;;;;9.78;69.27;101988.44;4905329;29;20267;-65
2024/01/31 18:36:17;;;;;;;9.63;5.30;;;;;;;9.78;68.51;101985.81;4905886;29;20210;-64
2024/01/31 18:38:46;;;;;;;10.53;5.20;;;;;;;9.85;68.29;101995.00;4903236;29;20281;-66
2024/01/31 18:41:16;;;;;;;7.73;4.13;;;;;;;9.93;67.60;101989.22;4908035;29;20217;-65
2024/01/31 18:43:46;;;;;;;8.63;3.70;;;;;;;9.99;67.13;102000.22;4902574;29;20221;-66
2024/01/31 18:46:17;;;;;;;7.93;3.63;;;;;;;10.01;66.90;101997.47;4901778;29;20221;-66
2024/01/31 18:48:47;;;;;;;5.93;3.77;;;;;;;10.07;66.89;102002.31;4903690;29;20261;-65
2024/01/31 18:51:16;;;;;;;5.27;3.30;;;;;;;10.13;66.63;102005.38;4905268;29;20236;-65
2024/01/31 18:53:45;;;;;;;7.50;3.90;;;;;;;10.20;66.19;102005.00;4904496;29;20225;-66
2024/01/31 18:56:15;;;;;;;9.33;4.33;;;;;;;10.25;65.56;102006.38;4907085;29;20636;-66